Time;durP1;ratioP1;P1;durP2;ratioP2;P2;SDS_P1;SDS_P2;PMS_P1;PMS_P2;Temp;Humidity;BMP_temperature;BMP_pressure;BME280_temperature;BME280_humidity;BME280_pressure;Samples;Min_cycle;Max_cycle;Signal;HPM_P1;HPM_P2
2022/04/04 00:02:14;;;;;;;15.68;11.32;;;0.50;99.90;;;;;;5052357;28;20029;-52
2022/04/04 00:04:41;;;;;;;13.90;12.30;;;0.50;99.90;;;;;;5052345;28;20036;-54
2022/04/04 00:07:06;;;;;;;14.13;11.90;;;0.40;99.90;;;;;;5050849;28;20655;-56
2022/04/04 00:09:32;;;;;;;14.63;12.02;;;0.30;99.90;;;;;;5052206;28;20116;-57
2022/04/04 00:11:58;;;;;;;15.88;12.73;;;0.30;99.90;;;;;;5052187;28;20033;-58
2022/04/04 00:14:24;;;;;;;17.73;14.23;;;0.20;99.90;;;;;;5052171;28;20028;-53
2022/04/04 00:16:50;;;;;;;16.52;13.50;;;0.10;99.90;;;;;;5050943;28;20033;-53
2022/04/04 00:19:15;;;;;;;13.73;11.98;;;0.00;99.90;;;;;;5051911;28;20020;-58
2022/04/04 00:21:42;;;;;;;13.57;11.70;;;-0.10;99.90;;;;;;5050859;28;20579;-53
2022/04/04 00:24:08;;;;;;;21.60;13.52;;;-0.10;99.90;;;;;;5051757;28;20037;-55
2022/04/04 00:26:34;;;;;;;14.18;11.98;;;-0.20;99.90;;;;;;5051953;28;20029;-56
2022/04/04 00:29:00;;;;;;;21.63;12.98;;;-0.20;99.90;;;;;;5051979;28;20074;-56
2022/04/04 00:31:25;;;;;;;16.63;12.30;;;-0.30;99.90;;;;;;5051695;28;20431;-54
2022/04/04 00:33:51;;;;;;;15.30;13.02;;;-0.40;99.90;;;;;;5051574;28;20036;-53
2022/04/04 00:36:17;;;;;;;16.73;12.75;;;-0.50;99.90;;;;;;5050397;28;20025;-57
2022/04/04 00:38:43;;;;;;;14.80;12.95;;;-0.60;99.90;;;;;;5050553;28;20029;-54
2022/04/04 00:41:10;;;;;;;20.55;13.50;;;-0.70;99.90;;;;;;5050506;28;20036;-57
2022/04/04 00:43:37;;;;;;;14.13;12.45;;;-0.70;99.90;;;;;;5051055;28;20028;-57
2022/04/04 00:46:03;;;;;;;17.25;13.50;;;-0.80;99.90;;;;;;5051192;28;20024;-58
2022/04/04 00:48:29;;;;;;;14.95;13.35;;;-0.80;99.90;;;;;;5051500;28;20158;-57
2022/04/04 00:50:55;;;;;;;13.27;11.88;;;-0.90;99.90;;;;;;5050015;28;20024;-57
2022/04/04 00:53:21;;;;;;;15.77;12.27;;;-1.00;99.90;;;;;;5051472;28;20031;-58
2022/04/04 00:55:47;;;;;;;16.27;12.10;;;-1.00;99.90;;;;;;5051363;28;20108;-55
2022/04/04 00:58:14;;;;;;;16.77;12.95;;;-1.10;99.90;;;;;;5051269;28;20380;-55
2022/04/04 01:00:41;;;;;;;15.00;12.35;;;-1.10;99.90;;;;;;5051342;28;20013;-57
2022/04/04 01:03:07;;;;;;;17.55;13.18;;;-1.20;99.90;;;;;;5051329;28;20025;-58
2022/04/04 01:05:32;;;;;;;15.75;11.82;;;-1.20;99.90;;;;;;5051310;28;20025;-59
2022/04/04 01:07:58;;;;;;;18.60;12.90;;;-1.20;99.90;;;;;;5051544;28;20464;-58
2022/04/04 01:10:24;;;;;;;17.90;13.02;;;-1.30;99.90;;;;;;5051437;28;20036;-57
2022/04/04 01:12:55;;;;;;;15.48;13.35;;;-1.30;99.90;;;;;;5051300;28;20359;-57
2022/04/04 01:15:23;;;;;;;19.25;14.63;;;-1.40;99.90;;;;;;5051452;28;20021;-58
2022/04/04 01:17:50;;;;;;;15.63;12.45;;;-1.50;99.90;;;;;;5051203;28;20098;-58
2022/04/04 01:20:18;;;;;;;17.05;14.32;;;-1.60;99.90;;;;;;5051009;28;20017;-59
2022/04/04 01:22:48;;;;;;;15.88;13.15;;;-1.60;99.90;;;;;;5050997;28;20596;-57
2022/04/04 01:25:16;;;;;;;14.77;13.07;;;-1.60;99.90;;;;;;5051252;28;20029;-55
2022/04/04 01:27:46;;;;;;;14.80;13.25;;;-1.70;99.90;;;;;;5051391;28;20028;-56
2022/04/04 01:30:12;;;;;;;16.95;13.88;;;-1.70;99.90;;;;;;5051176;28;20042;-55
2022/04/04 01:32:37;;;;;;;16.23;14.45;;;-1.70;99.90;;;;;;5051105;28;20024;-57
2022/04/04 01:35:05;;;;;;;18.90;13.70;;;-1.70;99.90;;;;;;5051131;28;20033;-57
2022/04/04 01:37:31;;;;;;;16.67;12.95;;;-1.70;99.90;;;;;;5051241;28;20013;-57
2022/04/04 01:39:58;;;;;;;21.75;13.95;;;-1.70;99.90;;;;;;5051089;28;20029;-57
2022/04/04 01:42:24;;;;;;;15.07;13.23;;;-1.60;99.90;;;;;;5051098;28;20028;-58
2022/04/04 01:44:50;;;;;;;18.58;14.07;;;-1.60;99.90;;;;;;5050966;28;20028;-57
2022/04/04 01:47:16;;;;;;;17.13;14.55;;;-1.50;99.90;;;;;;5051057;28;20013;-56
2022/04/04 01:49:41;;;;;;;17.33;14.05;;;-1.50;99.90;;;;;;5051058;28;20029;-57
2022/04/04 01:52:07;;;;;;;17.35;14.00;;;-1.50;99.90;;;;;;5050938;28;20370;-57
2022/04/04 01:54:33;;;;;;;17.50;13.25;;;-1.40;99.90;;;;;;5051088;28;20017;-56
2022/04/04 01:56:59;;;;;;;16.95;14.43;;;-1.40;99.90;;;;;;5050973;28;20107;-56
2022/04/04 01:59:24;;;;;;;26.05;14.65;;;-1.30;99.90;;;;;;5050243;28;20090;-58
2022/04/04 02:01:51;;;;;;;17.58;14.75;;;-1.30;99.90;;;;;;5054637;28;20013;-58
2022/04/04 02:04:16;;;;;;;16.90;13.18;;;-1.20;99.90;;;;;;5054349;28;20511;-58
2022/04/04 02:06:43;;;;;;;23.33;16.67;;;-1.20;99.90;;;;;;5054720;28;20025;-55
2022/04/04 02:09:09;;;;;;;25.52;14.63;;;-1.10;99.90;;;;;;5054357;28;20541;-56
2022/04/04 02:11:35;;;;;;;18.70;12.82;;;-1.10;99.90;;;;;;5054593;28;20029;-58
2022/04/04 02:14:02;;;;;;;16.58;13.45;;;-1.20;99.90;;;;;;5054387;28;20104;-58
2022/04/04 02:16:28;;;;;;;20.35;13.93;;;-1.20;99.90;;;;;;5054596;28;20689;-58
2022/04/04 02:18:54;;;;;;;16.35;13.23;;;-1.20;99.90;;;;;;5053947;28;20040;-52
2022/04/04 02:21:19;;;;;;;20.33;14.23;;;-1.20;99.90;;;;;;5054467;28;20029;-58
2022/04/04 02:23:45;;;;;;;17.85;14.02;;;-1.20;99.90;;;;;;5054446;28;20056;-58
2022/04/04 02:26:11;;;;;;;21.50;15.07;;;-1.20;99.90;;;;;;5052715;28;20022;-57
2022/04/04 02:28:37;;;;;;;22.08;15.98;;;-1.30;99.90;;;;;;5054213;28;20037;-59
2022/04/04 02:31:03;;;;;;;17.35;14.63;;;-1.30;99.90;;;;;;5053887;28;20485;-57
2022/04/04 02:33:29;;;;;;;18.80;14.70;;;-1.30;99.90;;;;;;5054042;28;20029;-54
2022/04/04 02:35:56;;;;;;;19.80;14.18;;;-1.30;99.90;;;;;;5054235;28;20017;-58
2022/04/04 02:38:26;;;;;;;19.38;15.65;;;-1.30;99.90;;;;;;5053841;28;20060;-57
2022/04/04 02:40:53;;;;;;;19.88;14.90;;;-1.40;99.90;;;;;;5054008;28;20028;-59
2022/04/04 02:43:20;;;;;;;22.42;15.32;;;-1.40;99.90;;;;;;5052405;28;20515;-57
2022/04/04 02:45:46;;;;;;;17.17;14.70;;;-1.50;99.90;;;;;;5054044;28;20032;-57
2022/04/04 02:48:15;;;;;;;16.38;14.40;;;-1.60;99.90;;;;;;5053659;28;20355;-59
2022/04/04 02:50:41;;;;;;;21.75;14.27;;;-1.60;99.90;;;;;;5053867;28;20031;-58
2022/04/04 02:53:06;;;;;;;21.42;14.82;;;-1.70;99.90;;;;;;5053652;28;20029;-56
2022/04/04 02:58:17;;;;;;;20.38;14.43;;;-1.70;99.90;;;;;;5053862;28;20090;-58
2022/04/04 03:00:42;;;;;;;17.33;13.68;;;-1.80;99.90;;;;;;5053715;28;20372;-58
2022/04/04 03:03:08;;;;;;;17.55;14.10;;;-1.80;99.90;;;;;;5053323;28;20090;-57
2022/04/04 03:05:35;;;;;;;18.15;13.85;;;-1.90;99.90;;;;;;5052407;28;20021;-57
2022/04/04 03:08:01;;;;;;;18.45;14.18;;;-2.00;99.90;;;;;;5053463;28;20025;-57
2022/04/04 03:10:27;;;;;;;18.42;14.65;;;-1.90;99.90;;;;;;5053319;28;20078;-55
2022/04/04 03:12:52;;;;;;;18.02;15.20;;;-2.00;99.90;;;;;;5053390;28;20025;-53
2022/04/04 03:15:23;;;;;;;20.95;15.07;;;-2.00;99.90;;;;;;5053338;28;20047;-56
2022/04/04 03:17:52;;;;;;;18.77;15.57;;;-2.00;99.90;;;;;;5053280;28;20029;-58
2022/04/04 03:20:19;;;;;;;23.80;16.17;;;-2.10;99.90;;;;;;5053368;28;20063;-58
2022/04/04 03:22:48;;;;;;;21.17;16.25;;;-2.20;99.90;;;;;;5053101;28;20053;-55
2022/04/04 03:25:15;;;;;;;20.95;14.82;;;-2.20;99.90;;;;;;5053329;28;20108;-56
2022/04/04 03:27:42;;;;;;;21.80;14.48;;;-2.20;99.90;;;;;;5053216;28;20029;-58
2022/04/04 03:30:13;;;;;;;20.30;14.57;;;-2.30;99.90;;;;;;5052882;28;20021;-57
2022/04/04 03:32:39;;;;;;;23.73;15.57;;;-2.30;99.90;;;;;;5052889;28;20027;-58
2022/04/04 03:35:06;;;;;;;24.25;17.63;;;-2.30;99.90;;;;;;5052897;28;20017;-56
2022/04/04 03:37:33;;;;;;;17.20;14.52;;;-2.40;99.90;;;;;;5052897;28;20031;-57
2022/04/04 03:39:59;;;;;;;21.35;15.50;;;-2.50;99.90;;;;;;5052671;28;20490;-58
2022/04/04 03:42:25;;;;;;;23.90;16.80;;;-2.60;99.90;;;;;;5053010;28;20033;-57
2022/04/04 03:44:51;;;;;;;19.90;15.07;;;-2.60;99.90;;;;;;5052645;28;20029;-59
2022/04/04 03:47:16;;;;;;;28.52;16.45;;;-2.60;99.90;;;;;;5052598;28;20116;-58
2022/04/04 03:49:42;;;;;;;30.40;15.90;;;-2.60;99.90;;;;;;5051231;28;20087;-56
2022/04/04 03:52:08;;;;;;;19.42;15.75;;;-2.60;99.90;;;;;;5052359;28;20052;-56
2022/04/04 03:54:35;;;;;;;27.05;17.67;;;-2.70;99.90;;;;;;5052415;28;20025;-57
2022/04/04 03:57:01;;;;;;;24.63;18.27;;;-2.90;99.90;;;;;;5052354;28;20521;-57
2022/04/04 03:59:26;;;;;;;25.17;19.33;;;-2.90;99.90;;;;;;5051080;28;20816;-58
2022/04/04 04:01:52;;;;;;;25.38;17.08;;;-2.90;99.90;;;;;;5052324;28;20044;-59
2022/04/04 04:04:18;;;;;;;25.30;18.80;;;-2.90;99.90;;;;;;5052456;28;20130;-55
2022/04/04 04:06:45;;;;;;;24.58;17.92;;;-3.00;99.90;;;;;;5052349;28;20075;-57
2022/04/04 04:09:12;;;;;;;33.55;17.73;;;-3.00;99.90;;;;;;5051953;28;20029;-57
2022/04/04 04:11:37;;;;;;;21.98;16.63;;;-3.00;99.90;;;;;;5052020;28;20037;-57
2022/04/04 04:14:03;;;;;;;19.67;16.17;;;-3.00;99.90;;;;;;5052070;28;20066;-57
2022/04/04 04:16:29;;;;;;;24.73;16.92;;;-3.00;99.90;;;;;;5051639;28;20043;-58
2022/04/04 04:18:55;;;;;;;31.83;17.25;;;-3.00;99.90;;;;;;5050550;28;20060;-57
2022/04/04 04:21:21;;;;;;;29.05;19.42;;;-3.10;99.90;;;;;;5050498;28;20048;-58
2022/04/04 04:23:48;;;;;;;33.95;19.58;;;-3.10;99.90;;;;;;5049701;28;20052;-60
2022/04/04 04:26:14;;;;;;;36.38;19.98;;;-3.10;99.90;;;;;;5049574;28;20029;-57
2022/04/04 04:28:44;;;;;;;32.42;18.20;;;-3.10;99.90;;;;;;5050671;28;20195;-57
2022/04/04 04:31:10;;;;;;;25.67;17.67;;;-3.10;99.90;;;;;;5050433;28;20135;-56
2022/04/04 04:33:36;;;;;;;25.05;19.55;;;-3.10;99.90;;;;;;5050766;28;20037;-57
2022/04/04 04:36:02;;;;;;;22.48;16.88;;;-3.10;99.90;;;;;;5050397;28;20032;-58
2022/04/04 04:38:30;;;;;;;31.67;19.05;;;-3.10;99.90;;;;;;5050458;28;20025;-56
2022/04/04 04:40:56;;;;;;;24.05;16.73;;;-3.00;99.90;;;;;;5050617;28;20017;-57
2022/04/04 04:43:22;;;;;;;24.33;17.35;;;-3.10;99.90;;;;;;5050584;28;20442;-58
2022/04/04 04:45:47;;;;;;;29.92;20.05;;;-3.10;99.90;;;;;;5050614;28;20086;-55
2022/04/04 04:48:14;;;;;;;31.23;20.80;;;-3.10;99.90;;;;;;5050326;28;20078;-59
2022/04/04 04:50:40;;;;;;;34.83;21.42;;;-3.10;99.90;;;;;;5050442;28;20033;-57
2022/04/04 04:53:05;;;;;;;38.20;22.75;;;-3.10;99.90;;;;;;5050289;28;20480;-58
2022/04/04 04:55:31;;;;;;;57.08;30.42;;;-3.10;99.90;;;;;;5050367;28;20028;-58
2022/04/04 04:57:57;;;;;;;61.67;29.50;;;-3.10;99.90;;;;;;5050217;28;20400;-59
2022/04/04 05:00:26;;;;;;;51.88;27.27;;;-3.10;99.90;;;;;;5050363;28;20036;-56
2022/04/04 05:05:37;;;;;;;42.72;23.83;;;-3.00;99.90;;;;;;5050321;28;20036;-58
2022/04/04 05:08:03;;;;;;;41.97;24.67;;;-2.90;99.90;;;;;;5049379;28;20017;-55
2022/04/04 05:10:29;;;;;;;41.35;24.45;;;-2.90;99.90;;;;;;5050161;28;20029;-58
2022/04/04 05:12:56;;;;;;;37.70;23.95;;;-2.80;99.90;;;;;;5049963;28;20075;-54
2022/04/04 05:15:23;;;;;;;47.22;24.55;;;-2.80;99.90;;;;;;5050282;28;20023;-56
2022/04/04 05:17:54;;;;;;;43.70;22.65;;;-2.80;99.90;;;;;;5049972;28;20107;-57
2022/04/04 05:20:20;;;;;;;42.45;20.08;;;-2.70;99.90;;;;;;5050192;28;20021;-57
2022/04/04 05:22:47;;;;;;;32.20;20.27;;;-2.70;99.90;;;;;;5050039;28;20025;-57
2022/04/04 05:25:12;;;;;;;27.17;19.27;;;-2.60;99.90;;;;;;5049768;28;20472;-56
2022/04/04 05:27:39;;;;;;;27.80;18.83;;;-2.60;99.90;;;;;;5049917;28;20040;-58
2022/04/04 05:30:06;;;;;;;27.63;19.63;;;-2.50;99.90;;;;;;5049641;28;20029;-57
2022/04/04 05:32:32;;;;;;;27.50;18.73;;;-2.40;99.90;;;;;;5049998;28;20079;-57
2022/04/04 05:34:57;;;;;;;32.47;20.40;;;-2.30;99.90;;;;;;5051665;28;20488;-56
2022/04/04 05:37:25;;;;;;;29.17;21.30;;;-2.20;99.90;;;;;;5054020;28;20035;-58
2022/04/04 05:39:51;;;;;;;29.35;19.60;;;-2.20;99.90;;;;;;5053835;28;20025;-59
2022/04/04 05:42:16;;;;;;;30.67;19.92;;;-2.10;99.90;;;;;;5053819;28;20245;-59
2022/04/04 05:44:42;;;;;;;33.40;19.55;;;-2.00;99.90;;;;;;5053764;28;20028;-58
2022/04/04 05:47:09;;;;;;;22.70;18.40;;;-1.90;99.90;;;;;;5053538;28;20028;-54
2022/04/04 05:49:35;;;;;;;25.52;17.00;;;-1.70;99.90;;;;;;5053694;28;20484;-56
2022/04/04 05:52:02;;;;;;;20.80;16.65;;;-1.60;99.90;;;;;;5053902;28;20029;-59
2022/04/04 05:54:28;;;;;;;23.55;16.75;;;-1.50;99.90;;;;;;5053725;28;20029;-56
2022/04/04 05:56:53;;;;;;;26.33;17.25;;;-1.40;99.90;;;;;;5053410;28;20032;-58
2022/04/04 05:59:19;;;;;;;23.98;17.05;;;-1.30;99.90;;;;;;5053448;28;20025;-59
2022/04/04 06:01:45;;;;;;;22.50;17.98;;;-1.20;99.90;;;;;;5053609;28;20025;-57
2022/04/04 06:04:10;;;;;;;25.35;17.38;;;-1.20;99.90;;;;;;5053304;28;20148;-56
2022/04/04 06:06:36;;;;;;;21.48;16.55;;;-1.10;99.90;;;;;;5053383;28;20033;-58
2022/04/04 06:09:02;;;;;;;30.15;20.23;;;-1.10;99.90;;;;;;5053287;28;20056;-58
2022/04/04 06:11:28;;;;;;;23.35;17.95;;;-1.00;99.90;;;;;;5053558;28;20492;-57
2022/04/04 06:13:54;;;;;;;22.50;16.65;;;-1.00;99.90;;;;;;5053228;28;20021;-58
2022/04/04 06:16:19;;;;;;;19.42;15.63;;;-0.90;99.90;;;;;;5053103;28;20550;-58
2022/04/04 06:18:45;;;;;;;26.88;17.10;;;-0.90;99.90;;;;;;5053338;28;20060;-56
2022/04/04 06:21:10;;;;;;;33.70;16.27;;;-0.80;99.90;;;;;;5052959;28;20354;-56
2022/04/04 06:23:36;;;;;;;26.38;17.33;;;-0.70;99.90;;;;;;5053047;28;20484;-57
2022/04/04 06:26:05;;;;;;;24.85;17.05;;;-0.60;99.90;;;;;;5052945;28;20025;-57
2022/04/04 06:28:31;;;;;;;22.35;15.43;;;-0.50;99.90;;;;;;5053022;28;20025;-57
2022/04/04 06:31:03;;;;;;;19.10;14.98;;;-0.50;99.90;;;;;;5052534;28;20492;-53
2022/04/04 06:33:28;;;;;;;21.17;14.85;;;-0.40;99.90;;;;;;5051473;28;20498;-58
2022/04/04 06:35:54;;;;;;;18.45;15.43;;;-0.30;99.90;;;;;;5052800;28;20029;-55
2022/04/04 06:38:20;;;;;;;24.25;14.88;;;-0.20;99.90;;;;;;5052719;28;20454;-58
2022/04/04 06:40:49;;;;;;;18.10;14.07;;;-0.10;99.90;;;;;;5051346;28;20033;-55
2022/04/04 06:43:16;;;;;;;23.98;16.00;;;0.00;99.90;;;;;;5052745;28;20044;-58
2022/04/04 06:45:41;;;;;;;19.85;15.35;;;0.10;99.90;;;;;;5052228;28;20021;-58
2022/04/04 06:48:07;;;;;;;15.65;13.93;;;0.20;99.90;;;;;;5052523;28;20021;-56
2022/04/04 06:50:33;;;;;;;16.65;12.98;;;0.30;99.90;;;;;;5052671;28;20021;-53
2022/04/04 06:52:59;;;;;;;15.70;12.63;;;0.30;99.90;;;;;;5052517;28;20116;-53
2022/04/04 06:55:25;;;;;;;19.70;12.93;;;0.40;99.90;;;;;;5052316;28;20032;-57
2022/04/04 06:57:50;;;;;;;19.88;15.07;;;0.50;99.90;;;;;;5052475;28;20055;-59
2022/04/04 07:00:16;;;;;;;20.48;12.77;;;0.50;99.90;;;;;;5052773;28;20033;-55
2022/04/04 07:02:44;;;;;;;17.00;13.40;;;0.60;99.90;;;;;;5052360;28;20032;-56
2022/04/04 07:05:10;;;;;;;17.10;13.05;;;0.70;99.90;;;;;;5052194;28;20464;-57
2022/04/04 07:07:36;;;;;;;19.75;13.50;;;0.60;99.90;;;;;;5051118;28;20658;-58
2022/04/04 07:10:03;;;;;;;18.17;12.93;;;0.70;99.90;;;;;;5051985;28;20029;-57
2022/04/04 07:12:29;;;;;;;18.23;13.30;;;0.80;99.90;;;;;;5052152;28;20503;-57
2022/04/04 07:14:55;;;;;;;20.80;13.43;;;0.90;99.90;;;;;;5052064;28;20028;-58
2022/04/04 07:17:21;;;;;;;17.02;14.55;;;0.90;99.90;;;;;;5052084;28;20400;-59
2022/04/04 07:19:47;;;;;;;16.13;13.00;;;1.00;99.90;;;;;;5052086;28;20468;-56
2022/04/04 07:22:14;;;;;;;14.70;12.23;;;1.10;99.90;;;;;;5051957;28;20033;-55
2022/04/04 07:24:40;;;;;;;13.73;11.85;;;1.20;99.90;;;;;;5051982;28;20082;-57
2022/04/04 07:27:06;;;;;;;13.93;11.52;;;1.30;99.90;;;;;;5051838;28;20032;-57
2022/04/04 07:29:31;;;;;;;16.88;11.98;;;1.30;99.90;;;;;;5051900;28;20067;-57
2022/04/04 07:31:58;;;;;;;17.75;12.73;;;1.30;99.90;;;;;;5051437;28;20068;-56
2022/04/04 07:34:24;;;;;;;15.43;12.02;;;1.30;99.90;;;;;;5051642;28;20025;-55
2022/04/04 07:36:49;;;;;;;15.98;10.82;;;1.30;99.90;;;;;;5051483;28;20606;-53
2022/04/04 07:39:15;;;;;;;13.70;11.40;;;1.30;99.90;;;;;;5051588;28;20323;-57
2022/04/04 07:41:41;;;;;;;14.05;12.10;;;1.40;99.90;;;;;;5051606;28;20071;-55
2022/04/04 07:44:06;;;;;;;13.90;11.98;;;1.60;99.90;;;;;;5051522;28;20049;-58
2022/04/04 07:46:32;;;;;;;13.80;11.23;;;1.60;99.90;;;;;;5051605;28;20080;-58
2022/04/04 07:48:58;;;;;;;23.40;11.40;;;1.80;99.90;;;;;;5051410;28;20017;-54
2022/04/04 07:51:24;;;;;;;15.20;11.65;;;1.80;99.90;;;;;;5051257;28;20029;-58
2022/04/04 07:53:50;;;;;;;11.60;10.38;;;2.00;99.90;;;;;;5051289;28;20041;-59
2022/04/04 07:56:16;;;;;;;13.57;10.45;;;2.20;99.90;;;;;;5051201;28;20041;-57
2022/04/04 07:58:42;;;;;;;14.75;10.77;;;2.30;99.90;;;;;;5050707;28;20040;-57
2022/04/04 08:01:08;;;;;;;16.67;11.98;;;2.30;99.90;;;;;;5051093;28;20546;-57
2022/04/04 08:03:34;;;;;;;11.63;9.70;;;2.30;99.90;;;;;;5051273;28;20032;-58
2022/04/04 08:06:00;;;;;;;16.90;9.75;;;2.40;99.90;;;;;;5050885;28;20021;-55
2022/04/04 08:08:25;;;;;;;13.88;10.20;;;2.50;99.90;;;;;;5051050;28;20049;-56
2022/04/04 08:10:51;;;;;;;16.25;12.30;;;2.50;99.90;;;;;;5051019;28;20033;-58
2022/04/04 08:13:17;;;;;;;16.73;10.45;;;2.50;99.90;;;;;;5049552;28;20154;-58
2022/04/04 08:15:44;;;;;;;15.05;11.18;;;2.70;99.90;;;;;;5050964;28;20104;-58
2022/04/04 08:18:09;;;;;;;16.95;10.55;;;2.90;99.90;;;;;;5049313;28;20411;-56
2022/04/04 08:20:35;;;;;;;16.15;11.98;;;3.00;99.90;;;;;;5050779;28;20131;-58
2022/04/04 08:23:01;;;;;;;19.38;10.73;;;3.00;99.90;;;;;;5050635;28;20380;-59
2022/04/04 08:25:26;;;;;;;11.52;9.95;;;3.00;99.90;;;;;;5050932;28;20085;-56
2022/04/04 08:27:52;;;;;;;18.33;10.73;;;3.20;99.90;;;;;;5050684;28;20029;-59
2022/04/04 08:30:18;;;;;;;12.10;9.70;;;3.40;99.90;;;;;;5050751;28;20052;-58
2022/04/04 08:32:45;;;;;;;10.80;9.70;;;3.20;99.90;;;;;;5062926;28;20060;-59
2022/04/04 08:35:13;;;;;;;12.98;9.27;;;3.50;99.90;;;;;;5070108;28;20463;-59
2022/04/04 08:37:41;;;;;;;20.42;12.18;;;3.70;99.90;;;;;;5070428;28;20055;-59
2022/04/04 08:40:09;;;;;;;13.98;9.48;;;3.90;99.00;;;;;;5069042;28;20120;-57
2022/04/04 08:42:36;;;;;;;11.90;10.00;;;3.80;99.20;;;;;;5070444;28;20052;-59
2022/04/04 08:45:04;;;;;;;11.02;8.45;;;3.90;97.70;;;;;;5070373;28;20054;-60
2022/04/04 08:47:31;;;;;;;10.68;9.02;;;4.40;97.90;;;;;;5070213;28;20103;-57
2022/04/04 08:49:57;;;;;;;11.68;9.93;;;4.50;97.10;;;;;;5070395;28;20030;-59
2022/04/04 08:52:24;;;;;;;11.48;9.45;;;4.80;98.40;;;;;;5070330;28;20024;-58
2022/04/04 08:54:50;;;;;;;12.65;9.23;;;4.80;96.70;;;;;;5070212;28;20052;-59
2022/04/04 08:57:17;;;;;;;13.55;9.75;;;4.40;98.20;;;;;;5070149;28;20032;-59
2022/04/04 08:59:43;;;;;;;12.60;8.82;;;4.80;98.50;;;;;;5070249;28;20035;-58
2022/04/04 09:02:12;;;;;;;12.75;9.18;;;4.80;96.20;;;;;;5070081;28;20036;-58
2022/04/04 09:04:40;;;;;;;10.43;8.68;;;4.60;96.10;;;;;;5070607;28;20458;-59
2022/04/04 09:07:08;;;;;;;13.23;10.10;;;4.80;95.40;;;;;;5070179;28;20012;-59
2022/04/04 09:09:46;;;;;;;11.10;8.68;;;4.90;97.30;;;;;;5070060;28;20491;-59
2022/04/04 09:12:19;;;;;;;13.38;9.40;;;5.20;94.30;;;;;;5070030;28;20020;-59
2022/04/04 09:14:57;;;;;;;10.93;8.82;;;5.20;95.80;;;;;;5070541;28;20024;-59
2022/04/04 09:17:27;;;;;;;9.80;8.50;;;5.30;93.90;;;;;;5070070;28;20081;-59
2022/04/04 09:19:54;;;;;;;9.63;8.60;;;5.20;93.30;;;;;;5068498;28;20025;-59
2022/04/04 09:22:21;;;;;;;9.80;8.65;;;5.30;95.40;;;;;;5068785;28;20031;-59
2022/04/04 09:24:52;;;;;;;12.73;8.15;;;5.40;92.90;;;;;;5069675;28;20024;-60
2022/04/04 09:27:27;;;;;;;10.82;9.10;;;5.40;93.10;;;;;;5070007;28;20024;-59
2022/04/04 09:30:00;;;;;;;11.18;7.80;;;5.50;95.70;;;;;;5069660;28;20487;-59
2022/04/04 09:32:43;;;;;;;10.48;8.40;;;5.60;94.60;;;;;;5069958;28;20033;-60
2022/04/04 09:35:14;;;;;;;10.63;8.32;;;5.30;92.50;;;;;;5069520;28;20430;-59
2022/04/04 09:37:45;;;;;;;11.65;8.15;;;5.80;92.50;;;;;;5070365;28;20490;-58
2022/04/04 09:40:14;;;;;;;9.85;8.40;;;5.80;93.30;;;;;;5069385;28;20028;-57
2022/04/04 09:42:40;;;;;;;14.20;8.88;;;5.30;91.40;;;;;;5068493;28;20472;-59
2022/04/04 09:45:09;;;;;;;10.07;8.23;;;5.80;93.20;;;;;;5069177;28;20070;-59
2022/04/04 09:47:47;;;;;;;10.68;9.52;;;6.10;94.60;;;;;;5069851;28;20029;-60
2022/04/04 09:50:37;;;;;;;10.20;8.82;;;6.00;94.10;;;;;;5069596;28;20547;-60
2022/04/04 09:53:08;;;;;;;11.05;8.55;;;5.80;92.90;;;;;;5069598;28;20032;-59
2022/04/04 09:55:39;;;;;;;14.35;9.38;;;6.00;93.00;;;;;;5069578;28;20415;-59
2022/04/04 09:58:08;;;;;;;13.48;9.25;;;5.70;93.50;;;;;;5069286;28;20427;-59
2022/04/04 10:00:38;;;;;;;13.27;8.60;;;6.10;94.10;;;;;;5069564;28;20013;-59
2022/04/04 10:03:07;;;;;;;10.75;9.07;;;6.40;91.40;;;;;;5069415;28;20104;-60
2022/04/04 10:05:35;;;;;;;14.73;10.27;;;6.80;92.90;;;;;;5069326;28;20021;-59
2022/04/04 10:08:01;;;;;;;10.20;8.68;;;6.50;91.90;;;;;;5069492;28;20028;-58
2022/04/04 10:10:29;;;;;;;26.23;9.75;;;6.80;91.20;;;;;;5069647;28;20020;-59
2022/04/04 10:12:56;;;;;;;68.32;21.13;;;7.10;90.90;;;;;;5069432;28;20020;-59
2022/04/04 10:15:23;;;;;;;15.23;12.05;;;7.30;90.20;;;;;;5069920;28;20025;-60
2022/04/04 10:17:50;;;;;;;21.70;8.77;;;7.10;89.80;;;;;;5069470;28;20032;-59
2022/04/04 10:20:17;;;;;;;15.18;10.27;;;7.60;91.20;;;;;;5069831;28;20073;-60
2022/04/04 10:22:45;;;;;;;19.15;11.05;;;7.00;82.40;;;;;;5073155;28;20410;-59
2022/04/04 10:25:14;;;;;;;16.75;12.38;;;7.30;83.90;;;;;;5072776;28;20143;-60
2022/04/04 10:27:44;;;;;;;10.80;8.40;;;7.50;92.80;;;;;;5073076;28;20025;-59
2022/04/04 10:30:10;;;;;;;9.82;8.20;;;7.70;85.60;;;;;;5072453;28;20477;-59
2022/04/04 10:32:50;;;;;;;11.05;9.52;;;7.80;87.70;;;;;;5072933;28;20130;-58
2022/04/04 10:35:23;;;;;;;18.10;9.85;;;7.40;90.20;;;;;;5073148;28;20025;-59
2022/04/04 10:37:49;;;;;;;18.15;9.90;;;7.10;88.40;;;;;;5072842;28;20054;-59
2022/04/04 10:40:18;;;;;;;11.05;9.55;;;6.70;87.50;;;;;;5072712;28;20034;-59
2022/04/04 10:42:46;;;;;;;13.02;9.85;;;6.50;88.20;;;;;;5072802;28;20031;-56
2022/04/04 10:45:13;;;;;;;14.07;9.00;;;6.50;90.70;;;;;;5072447;28;20017;-58
2022/04/04 10:47:44;;;;;;;11.75;9.65;;;6.60;87.40;;;;;;5072427;28;20032;-56
2022/04/04 10:50:22;;;;;;;12.07;10.75;;;6.60;88.40;;;;;;5072294;28;20302;-58
2022/04/04 10:52:48;;;;;;;11.35;9.77;;;5.70;88.90;;;;;;5072582;28;20029;-60
2022/04/04 10:55:48;;;;;;;12.85;10.70;;;5.80;90.10;;;;;;5072240;28;20372;-59
2022/04/04 10:58:16;;;;;;;14.98;10.38;;;6.70;91.10;;;;;;5072313;28;20024;-59
2022/04/04 11:01:03;;;;;;;15.25;12.07;;;6.80;90.90;;;;;;5072160;28;20027;-58
2022/04/04 11:03:51;;;;;;;15.50;10.80;;;6.80;89.40;;;;;;5072222;28;20388;-60
2022/04/04 11:09:04;;;;;;;13.00;11.27;;;8.10;88.70;;;;;;5072159;28;20031;-60
2022/04/04 11:11:49;;;;;;;28.00;18.73;;;7.40;84.80;;;;;;5072070;28;20028;-59
2022/04/04 11:14:39;;;;;;;12.75;9.70;;;7.50;88.40;;;;;;5072114;28;20032;-59
2022/04/04 11:20:10;;;;;;;21.80;13.57;;;8.60;83.20;;;;;;5071671;28;20131;-59
2022/04/04 11:22:41;;;;;;;16.05;9.55;;;8.80;80.10;;;;;;5071856;28;20058;-60
2022/04/04 11:25:13;;;;;;;9.43;8.38;;;9.50;80.80;;;;;;5071927;28;20066;-60
2022/04/04 11:27:40;;;;;;;18.33;14.18;;;10.50;72.40;;;;;;5071844;28;20039;-60
2022/04/04 11:30:11;;;;;;;10.43;8.80;;;9.80;69.00;;;;;;5071472;28;20036;-60
2022/04/04 11:32:40;;;;;;;12.68;9.65;;;10.00;68.80;;;;;;5070195;28;20024;-59
2022/04/04 11:35:25;;;;;;;12.95;8.68;;;11.10;71.50;;;;;;5071403;28;20051;-60
2022/04/04 11:37:57;;;;;;;9.35;8.32;;;10.90;64.50;;;;;;5071370;28;20052;-60
2022/04/04 11:40:29;;;;;;;10.32;7.95;;;11.80;62.40;;;;;;5071573;28;20032;-60
2022/04/04 11:42:56;;;;;;;9.43;8.45;;;13.10;58.40;;;;;;5071210;28;20499;-61
2022/04/04 11:45:25;;;;;;;8.85;7.82;;;12.60;56.40;;;;;;5071836;28;20028;-60
2022/04/04 11:48:02;;;;;;;9.63;7.00;;;14.50;53.50;;;;;;5071104;28;20023;-60
2022/04/04 11:50:30;;;;;;;25.08;8.15;;;15.30;52.50;;;;;;5071571;28;20070;-59
2022/04/04 11:53:02;;;;;;;9.05;7.97;;;14.50;50.20;;;;;;5071037;28;20036;-60
2022/04/04 11:55:30;;;;;;;13.55;8.50;;;14.70;53.80;;;;;;5071203;28;20024;-60
2022/04/04 11:57:58;;;;;;;9.52;8.52;;;13.70;48.70;;;;;;5070920;28;20028;-60
2022/04/04 12:00:31;;;;;;;15.43;7.90;;;11.60;53.10;;;;;;5069556;28;20024;-60
2022/04/04 12:03:12;;;;;;;7.72;6.95;;;12.50;54.50;;;;;;5070999;28;20078;-60
2022/04/04 12:05:44;;;;;;;12.32;8.27;;;13.50;50.50;;;;;;5069717;28;20023;-60
2022/04/04 12:08:11;;;;;;;14.40;8.88;;;12.80;49.60;;;;;;5070730;28;20094;-60
2022/04/04 12:10:38;;;;;;;9.88;8.80;;;12.60;54.60;;;;;;5070860;28;20021;-61
2022/04/04 12:13:08;;;;;;;9.07;7.93;;;13.70;51.40;;;;;;5070593;28;20021;-60
2022/04/04 12:15:44;;;;;;;11.07;8.88;;;14.20;49.30;;;;;;5071012;28;20112;-60
2022/04/04 12:18:11;;;;;;;10.20;9.15;;;13.40;49.50;;;;;;5070506;28;20024;-60
2022/04/04 12:20:42;;;;;;;11.15;7.68;;;12.60;53.20;;;;;;5071302;28;20387;-60
2022/04/04 12:26:00;;;;;;;16.35;9.10;;;14.70;44.50;;;;;;5071103;28;20043;-60
2022/04/04 12:28:32;;;;;;;8.38;7.32;;;12.40;49.30;;;;;;5070481;28;20217;-59
2022/04/04 12:31:19;;;;;;;12.02;9.60;;;13.50;49.40;;;;;;5070210;28;20051;-59
2022/04/04 12:33:51;;;;;;;8.98;8.07;;;13.30;47.80;;;;;;5070533;28;20029;-60
2022/04/04 12:36:31;;;;;;;8.75;7.85;;;13.50;50.50;;;;;;5070611;28;20021;-60
2022/04/04 12:39:01;;;;;;;10.68;7.38;;;15.10;47.40;;;;;;5070301;28;20025;-60
2022/04/04 12:41:27;;;;;;;11.07;8.20;;;15.90;45.30;;;;;;5070460;28;20522;-60
2022/04/04 12:44:04;;;;;;;7.70;6.72;;;13.70;46.10;;;;;;5068429;28;20380;-60
2022/04/04 12:46:32;;;;;;;7.53;6.60;;;13.90;49.30;;;;;;5070511;28;20020;-60
2022/04/04 12:49:18;;;;;;;8.18;7.28;;;15.30;47.30;;;;;;5068930;28;20036;-60
2022/04/04 12:51:53;;;;;;;8.05;7.30;;;15.90;44.10;;;;;;5070485;28;20020;-60